sensor_id;sensor_type;location;lat;lon;timestamp;pressure;altitude;pressure_sealevel;temperature;humidity
49055;BME280;35405;52.344;14.530;2022-08-19T04:09:40;100101.88;;;18.95;100.00
49055;BME280;35405;52.344;14.530;2022-08-19T04:12:05;100099.91;;;18.96;100.00
49055;BME280;35405;52.344;14.530;2022-08-19T04:14:31;100110.16;;;18.95;100.00
49055;BME280;35405;52.344;14.530;2022-08-19T04:16:57;100105.84;;;18.98;100.00
49055;BME280;35405;52.344;14.530;2022-08-19T04:19:22;100124.50;;;19.05;100.00
49055;BME280;35405;52.344;14.530;2022-08-19T04:21:49;100135.66;;;19.12;100.00
49055;BME280;35405;52.344;14.530;2022-08-19T04:24:15;100138.06;;;19.13;100.00
49055;BME280;35405;52.344;14.530;2022-08-19T04:26:41;100139.94;;;19.09;100.00
49055;BME280;35405;52.344;14.530;2022-08-19T04:29:07;100159.25;;;19.09;100.00
49055;BME280;35405;52.344;14.530;2022-08-19T04:31:33;100169.53;;;19.12;100.00
49055;BME280;35405;52.344;14.530;2022-08-19T04:34:03;100160.13;;;19.13;100.00
49055;BME280;35405;52.344;14.530;2022-08-19T04:36:30;100163.22;;;19.12;100.00
49055;BME280;35405;52.344;14.530;2022-08-19T04:38:56;100162.44;;;19.11;100.00
49055;BME280;35405;52.344;14.530;2022-08-19T04:41:22;100159.41;;;19.16;100.00
49055;BME280;35405;52.344;14.530;2022-08-19T04:44:20;100155.63;;;19.25;100.00
49055;BME280;35405;52.344;14.530;2022-08-19T04:46:45;100156.91;;;19.31;100.00
49055;BME280;35405;52.344;14.530;2022-08-19T04:49:12;100166.50;;;19.37;100.00
49055;BME280;35405;52.344;14.530;2022-08-19T04:51:39;100169.41;;;19.44;100.00
49055;BME280;35405;52.344;14.530;2022-08-19T04:54:05;100167.78;;;19.43;100.00
49055;BME280;35405;52.344;14.530;2022-08-19T04:56:30;100162.16;;;19.36;100.00
49055;BME280;35405;52.344;14.530;2022-08-19T04:58:56;100158.94;;;19.34;100.00
49055;BME280;35405;52.344;14.530;2022-08-19T05:01:26;100162.44;;;19.31;100.00
49055;BME280;35405;52.344;14.530;2022-08-19T05:03:51;100162.88;;;19.33;100.00
49055;BME280;35405;52.344;14.530;2022-08-19T05:06:18;100155.03;;;19.35;100.00
49055;BME280;35405;52.344;14.530;2022-08-19T05:08:44;100154.31;;;19.38;100.00
49055;BME280;35405;52.344;14.530;2022-08-19T05:11:16;100157.50;;;19.40;100.00
49055;BME280;35405;52.344;14.530;2022-08-19T05:13:45;100164.25;;;19.42;100.00
49055;BME280;35405;52.344;14.530;2022-08-19T05:16:12;100167.78;;;19.43;100.00
49055;BME280;35405;52.344;14.530;2022-08-19T05:18:38;100166.66;;;19.44;100.00
49055;BME280;35405;52.344;14.530;2022-08-19T05:21:22;100164.31;;;19.46;100.00
49055;BME280;35405;52.344;14.530;2022-08-19T05:24:06;100171.06;;;19.49;100.00
49055;BME280;35405;52.344;14.530;2022-08-19T05:26:33;100158.44;;;19.48;100.00
49055;BME280;35405;52.344;14.530;2022-08-19T05:28:59;100152.97;;;19.51;100.00
49055;BME280;35405;52.344;14.530;2022-08-19T05:31:25;100160.81;;;19.49;100.00
49055;BME280;35405;52.344;14.530;2022-08-19T05:33:50;100160.81;;;19.49;100.00
49055;BME280;35405;52.344;14.530;2022-08-19T05:36:15;100163.28;;;19.54;100.00
49055;BME280;35405;52.344;14.530;2022-08-19T05:38:40;100158.63;;;19.58;100.00
49055;BME280;35405;52.344;14.530;2022-08-19T05:41:07;100160.41;;;19.67;100.00
49055;BME280;35405;52.344;14.530;2022-08-19T05:43:32;100166.06;;;19.74;100.00
49055;BME280;35405;52.344;14.530;2022-08-19T05:45:58;100178.81;;;19.82;100.00
49055;BME280;35405;52.344;14.530;2022-08-19T05:48:23;100178.06;;;19.85;100.00
49055;BME280;35405;52.344;14.530;2022-08-19T05:50:48;100184.47;;;19.89;100.00
49055;BME280;35405;52.344;14.530;2022-08-19T05:53:24;100183.75;;;19.92;100.00
49055;BME280;35405;52.344;14.530;2022-08-19T05:55:49;100182.84;;;19.88;100.00
49055;BME280;35405;52.344;14.530;2022-08-19T05:58:14;100184.38;;;19.85;100.00
49055;BME280;35405;52.344;14.530;2022-08-19T06:00:40;100180.09;;;19.88;100.00
49055;BME280;35405;52.344;14.530;2022-08-19T06:03:07;100182.84;;;19.88;100.00
49055;BME280;35405;52.344;14.530;2022-08-19T06:05:32;100170.22;;;19.87;100.00
49055;BME280;35405;52.344;14.530;2022-08-19T06:07:58;100178.63;;;19.94;100.00
49055;BME280;35405;52.344;14.530;2022-08-19T06:10:27;100179.84;;;19.97;100.00
49055;BME280;35405;52.344;14.530;2022-08-19T06:12:52;100185.53;;;20.04;100.00
49055;BME280;35405;52.344;14.530;2022-08-19T06:15:18;100186.44;;;20.12;100.00
49055;BME280;35405;52.344;14.530;2022-08-19T06:17:43;100186.91;;;20.17;100.00
49055;BME280;35405;52.344;14.530;2022-08-19T06:20:13;100193.97;;;20.15;100.00
49055;BME280;35405;52.344;14.530;2022-08-19T06:22:39;100195.16;;;20.14;100.00
49055;BME280;35405;52.344;14.530;2022-08-19T06:25:05;100192.50;;;20.21;100.00
49055;BME280;35405;52.344;14.530;2022-08-19T06:27:30;100191.91;;;20.31;100.00
49055;BME280;35405;52.344;14.530;2022-08-19T06:30:00;100186.00;;;20.32;100.00
49055;BME280;35405;52.344;14.530;2022-08-19T06:32:25;100180.47;;;20.32;100.00
49055;BME280;35405;52.344;14.530;2022-08-19T06:34:51;100185.25;;;20.36;100.00
49055;BME280;35405;52.344;14.530;2022-08-19T06:37:16;100183.28;;;20.36;100.00
49055;BME280;35405;52.344;14.530;2022-08-19T06:39:42;100182.94;;;20.38;100.00
49055;BME280;35405;52.344;14.530;2022-08-19T06:42:08;100182.63;;;20.43;100.00
49055;BME280;35405;52.344;14.530;2022-08-19T06:44:36;100186.03;;;20.36;100.00
49055;BME280;35405;52.344;14.530;2022-08-19T06:47:04;100199.19;;;20.43;100.00
49055;BME280;35405;52.344;14.530;2022-08-19T06:49:30;100194.78;;;20.38;100.00
49055;BME280;35405;52.344;14.530;2022-08-19T06:51:58;100196.31;;;20.36;100.00
49055;BME280;35405;52.344;14.530;2022-08-19T06:54:24;100192.75;;;20.35;100.00
49055;BME280;35405;52.344;14.530;2022-08-19T06:56:50;100201.78;;;20.32;100.00
49055;BME280;35405;52.344;14.530;2022-08-19T06:59:17;100200.66;;;20.37;100.00
49055;BME280;35405;52.344;14.530;2022-08-19T07:01:50;100199.50;;;20.38;100.00
49055;BME280;35405;52.344;14.530;2022-08-19T07:04:19;100207.09;;;20.44;100.00
49055;BME280;35405;52.344;14.530;2022-08-19T07:06:45;100209.84;;;20.44;100.00
49055;BME280;35405;52.344;14.530;2022-08-19T07:09:15;100219.50;;;20.54;100.00
49055;BME280;35405;52.344;14.530;2022-08-19T07:11:44;100223.19;;;20.62;100.00
49055;BME280;35405;52.344;14.530;2022-08-19T07:14:10;100216.63;;;20.70;100.00
49055;BME280;35405;52.344;14.530;2022-08-19T07:16:35;100214.25;;;20.72;100.00
49055;BME280;35405;52.344;14.530;2022-08-19T07:19:00;100215.97;;;20.80;100.00
49055;BME280;35405;52.344;14.530;2022-08-19T07:21:27;100213.94;;;20.77;100.00
49055;BME280;35405;52.344;14.530;2022-08-19T07:23:56;100216.28;;;20.75;100.00
49055;BME280;35405;52.344;14.530;2022-08-19T07:26:28;100217.56;;;20.81;100.00
49055;BME280;35405;52.344;14.530;2022-08-19T07:28:55;100223.56;;;20.87;100.00
49055;BME280;35405;52.344;14.530;2022-08-19T07:31:21;100222.34;;;20.84;100.00
49055;BME280;35405;52.344;14.530;2022-08-19T07:33:48;100208.00;;;20.75;100.00
49055;BME280;35405;52.344;14.530;2022-08-19T07:36:14;100222.38;;;20.88;100.00
49055;BME280;35405;52.344;14.530;2022-08-19T07:38:42;100230.50;;;21.00;100.00
49055;BME280;35405;52.344;14.530;2022-08-19T07:41:09;100234.28;;;21.18;100.00
49055;BME280;35405;52.344;14.530;2022-08-19T07:43:35;100234.97;;;21.38;100.00
49055;BME280;35405;52.344;14.530;2022-08-19T07:46:00;100233.22;;;21.57;100.00
49055;BME280;35405;52.344;14.530;2022-08-19T07:48:27;100232.44;;;21.60;100.00
49055;BME280;35405;52.344;14.530;2022-08-19T07:50:53;100220.88;;;21.51;100.00
49055;BME280;35405;52.344;14.530;2022-08-19T07:53:19;100226.91;;;21.60;100.00
49055;BME280;35405;52.344;14.530;2022-08-19T07:55:52;100241.09;;;21.88;100.00
49055;BME280;35405;52.344;14.530;2022-08-19T07:58:19;100240.88;;;22.08;100.00
49055;BME280;35405;52.344;14.530;2022-08-19T08:00:45;100240.44;;;22.40;100.00
49055;BME280;35405;52.344;14.530;2022-08-19T08:03:11;100228.94;;;22.41;100.00
49055;BME280;35405;52.344;14.530;2022-08-19T08:05:37;100238.09;;;22.42;100.00
49055;BME280;35405;52.344;14.530;2022-08-19T08:08:21;100214.84;;;22.16;100.00
49055;BME280;35405;52.344;14.530;2022-08-19T08:11:06;100226.38;;;22.18;100.00
49055;BME280;35405;52.344;14.530;2022-08-19T08:13:32;100227.88;;;22.12;100.00
49055;BME280;35405;52.344;14.530;2022-08-19T08:16:00;100251.69;;;22.61;100.00
49055;BME280;35405;52.344;14.530;2022-08-19T08:18:31;100245.06;;;22.73;100.00
49055;BME280;35405;52.344;14.530;2022-08-19T08:20:59;100223.56;;;22.59;100.00
49055;BME280;35405;52.344;14.530;2022-08-19T08:23:27;100233.19;;;22.76;100.00
49055;BME280;35405;52.344;14.530;2022-08-19T08:25:55;100251.66;;;23.13;100.00
49055;BME280;35405;52.344;14.530;2022-08-19T08:28:25;100242.19;;;23.17;100.00
49055;BME280;35405;52.344;14.530;2022-08-19T08:30:50;100242.22;;;23.21;100.00
49055;BME280;35405;52.344;14.530;2022-08-19T08:33:17;100247.75;;;23.21;100.00
49055;BME280;35405;52.344;14.530;2022-08-19T08:35:42;100246.09;;;23.05;100.00
49055;BME280;35405;52.344;14.530;2022-08-19T08:38:08;100246.81;;;22.95;100.00
49055;BME280;35405;52.344;14.530;2022-08-19T08:45:26;100255.41;;;23.42;100.00
49055;BME280;35405;52.344;14.530;2022-08-19T08:47:53;100246.66;;;23.43;100.00
49055;BME280;35405;52.344;14.530;2022-08-19T08:52:47;100255.22;;;23.93;100.00
49055;BME280;35405;52.344;14.530;2022-08-19T08:55:15;100227.44;;;23.97;100.00
49055;BME280;35405;52.344;14.530;2022-08-19T09:00:11;100234.56;;;23.91;100.00
49055;BME280;35405;52.344;14.530;2022-08-19T09:02:39;100253.28;;;24.26;100.00
49055;BME280;35405;52.344;14.530;2022-08-19T09:05:04;100242.59;;;24.53;100.00
49055;BME280;35405;52.344;14.530;2022-08-19T09:07:49;100256.47;;;24.82;100.00
49055;BME280;35405;52.344;14.530;2022-08-19T09:13:20;100260.31;;;25.56;100.00
49055;BME280;35405;52.344;14.530;2022-08-19T09:15:51;100255.69;;;26.09;100.00
49055;BME280;35405;52.344;14.530;2022-08-19T09:18:18;100250.47;;;26.11;100.00
49055;BME280;35405;52.344;14.530;2022-08-19T09:20:43;100227.47;;;25.96;100.00
49055;BME280;35405;52.344;14.530;2022-08-19T09:23:09;100233.94;;;25.82;100.00
49055;BME280;35405;52.344;14.530;2022-08-19T09:25:36;100226.88;;;25.56;100.00
49055;BME280;35405;52.344;14.530;2022-08-19T09:28:04;100237.78;;;25.22;100.00
49055;BME280;35405;52.344;14.530;2022-08-19T09:30:41;100231.81;;;25.13;100.00
49055;BME280;35405;52.344;14.530;2022-08-19T09:33:07;100229.41;;;25.15;100.00
49055;BME280;35405;52.344;14.530;2022-08-19T09:35:33;100237.38;;;25.20;100.00
49055;BME280;35405;52.344;14.530;2022-08-19T09:37:58;100222.28;;;25.14;100.00
49055;BME280;35405;52.344;14.530;2022-08-19T09:40:24;100235.41;;;24.95;100.00
49055;BME280;35405;52.344;14.530;2022-08-19T09:42:50;100246.13;;;25.04;100.00
49055;BME280;35405;52.344;14.530;2022-08-19T09:45:16;100242.50;;;25.28;100.00
49055;BME280;35405;52.344;14.530;2022-08-19T09:47:42;100235.28;;;25.42;100.00
49055;BME280;35405;52.344;14.530;2022-08-19T09:50:08;100245.91;;;25.72;100.00
49055;BME280;35405;52.344;14.530;2022-08-19T09:52:34;100232.94;;;26.14;100.00
49055;BME280;35405;52.344;14.530;2022-08-19T09:55:01;100236.81;;;26.31;100.00
49055;BME280;35405;52.344;14.530;2022-08-19T09:57:41;100222.72;;;26.49;100.00
49055;BME280;35405;52.344;14.530;2022-08-19T10:00:10;100226.75;;;26.40;100.00
49055;BME280;35405;52.344;14.530;2022-08-19T10:02:35;100212.09;;;26.33;100.00
49055;BME280;35405;52.344;14.530;2022-08-19T10:05:04;100221.84;;;26.59;100.00
49055;BME280;35405;52.344;14.530;2022-08-19T10:07:48;100218.31;;;26.55;100.00
49055;BME280;35405;52.344;14.530;2022-08-19T10:10:13;100219.03;;;26.62;100.00
49055;BME280;35405;52.344;14.530;2022-08-19T10:12:38;100206.63;;;26.67;100.00
49055;BME280;35405;52.344;14.530;2022-08-19T10:15:04;100214.41;;;26.41;100.00
49055;BME280;35405;52.344;14.530;2022-08-19T10:17:31;100217.47;;;26.06;100.00
49055;BME280;35405;52.344;14.530;2022-08-19T10:20:15;100220.41;;;25.77;100.00
49055;BME280;35405;52.344;14.530;2022-08-19T10:22:44;100225.59;;;25.75;100.00
49055;BME280;35405;52.344;14.530;2022-08-19T10:25:12;100226.31;;;25.90;100.00
49055;BME280;35405;52.344;14.530;2022-08-19T10:27:39;100229.94;;;25.87;100.00
49055;BME280;35405;52.344;14.530;2022-08-19T10:30:04;100225.97;;;25.88;100.00
49055;BME280;35405;52.344;14.530;2022-08-19T10:32:31;100223.25;;;25.70;100.00
49055;BME280;35405;52.344;14.530;2022-08-19T10:34:56;100225.19;;;25.76;100.00
49055;BME280;35405;52.344;14.530;2022-08-19T10:37:22;100214.84;;;25.77;100.00
49055;BME280;35405;52.344;14.530;2022-08-19T10:39:47;100222.34;;;25.87;100.00
49055;BME280;35405;52.344;14.530;2022-08-19T10:42:13;100219.88;;;26.04;100.00
49055;BME280;35405;52.344;14.530;2022-08-19T10:44:39;100220.75;;;25.93;100.00
49055;BME280;35405;52.344;14.530;2022-08-19T10:47:04;100224.81;;;25.82;100.00
49055;BME280;35405;52.344;14.530;2022-08-19T10:49:30;100221.63;;;25.76;100.00
49055;BME280;35405;52.344;14.530;2022-08-19T10:51:55;100222.34;;;25.87;100.00
49055;BME280;35405;52.344;14.530;2022-08-19T10:54:39;100230.25;;;26.03;100.00
49055;BME280;35405;52.344;14.530;2022-08-19T10:57:23;100218.25;;;26.10;100.00
49055;BME280;35405;52.344;14.530;2022-08-19T10:59:54;100219.84;;;26.07;100.00
49055;BME280;35405;52.344;14.530;2022-08-19T11:02:19;100226.97;;;26.15;100.00
49055;BME280;35405;52.344;14.530;2022-08-19T11:04:44;100224.28;;;26.53;100.00
49055;BME280;35405;52.344;14.530;2022-08-19T11:07:09;100217.06;;;27.01;100.00
49055;BME280;35405;52.344;14.530;2022-08-19T11:09:38;100205.72;;;27.53;100.00
49055;BME280;35405;52.344;14.530;2022-08-19T11:12:04;100213.78;;;27.44;100.00
49055;BME280;35405;52.344;14.530;2022-08-19T11:14:29;100213.97;;;27.29;100.00
49055;BME280;35405;52.344;14.530;2022-08-19T11:16:55;100199.81;;;27.44;100.00
49055;BME280;35405;52.344;14.530;2022-08-19T11:19:21;100212.53;;;27.48;100.00
49055;BME280;35405;52.344;14.530;2022-08-19T11:21:48;100217.50;;;27.33;100.00
49055;BME280;35405;52.344;14.530;2022-08-19T11:24:16;100236.59;;;27.69;100.00
49055;BME280;35405;52.344;14.530;2022-08-19T11:26:42;100231.13;;;27.62;100.00
49055;BME280;35405;52.344;14.530;2022-08-19T11:29:09;100233.75;;;28.03;100.00
49055;BME280;35405;52.344;14.530;2022-08-19T11:31:39;100236.38;;;27.87;100.00
49055;BME280;35405;52.344;14.530;2022-08-19T11:34:05;100243.78;;;28.01;100.00
49055;BME280;35405;52.344;14.530;2022-08-19T11:36:32;100242.78;;;28.15;100.00
49055;BME280;35405;52.344;14.530;2022-08-19T11:38:57;100238.97;;;28.29;100.00
49055;BME280;35405;52.344;14.530;2022-08-19T11:41:23;100237.75;;;28.02;100.00
49055;BME280;35405;52.344;14.530;2022-08-19T11:43:49;100248.88;;;28.06;100.00
49055;BME280;35405;52.344;14.530;2022-08-19T11:46:17;100249.47;;;27.63;100.00
49055;BME280;35405;52.344;14.530;2022-08-19T11:48:43;100247.97;;;27.55;100.00
49055;BME280;35405;52.344;14.530;2022-08-19T11:51:12;100252.94;;;27.71;100.00
49055;BME280;35405;52.344;14.530;2022-08-19T11:53:37;100257.00;;;27.97;100.00
49055;BME280;35405;52.344;14.530;2022-08-19T11:56:03;100252.09;;;28.32;100.00
49055;BME280;35405;52.344;14.530;2022-08-19T11:58:29;100256.00;;;28.38;100.00
49055;BME280;35405;52.344;14.530;2022-08-19T12:00:55;100257.91;;;28.44;100.00
49055;BME280;35405;52.344;14.530;2022-08-19T12:03:20;100253.53;;;28.16;100.00
49055;BME280;35405;52.344;14.530;2022-08-19T12:05:45;100253.59;;;27.51;100.00
49055;BME280;35405;52.344;14.530;2022-08-19T12:08:11;100258.66;;;27.29;100.00
49055;BME280;35405;52.344;14.530;2022-08-19T12:10:38;100265.78;;;27.34;100.00
49055;BME280;35405;52.344;14.530;2022-08-19T12:13:03;100267.81;;;27.64;100.00
49055;BME280;35405;52.344;14.530;2022-08-19T12:15:28;100268.88;;;27.74;100.00
49055;BME280;35405;52.344;14.530;2022-08-19T12:17:54;100268.34;;;27.86;100.00
49055;BME280;35405;52.344;14.530;2022-08-19T12:20:22;100271.31;;;28.02;100.00
49055;BME280;35405;52.344;14.530;2022-08-19T12:22:47;100276.06;;;28.33;100.00
49055;BME280;35405;52.344;14.530;2022-08-19T12:25:13;100275.69;;;28.81;100.00
49055;BME280;35405;52.344;14.530;2022-08-19T12:27:38;100269.91;;;28.92;100.00
49055;BME280;35405;52.344;14.530;2022-08-19T12:30:04;100278.66;;;28.47;100.00
49055;BME280;35405;52.344;14.530;2022-08-19T12:32:30;100286.41;;;28.09;100.00
49055;BME280;35405;52.344;14.530;2022-08-19T12:34:55;100291.00;;;27.61;100.00
49055;BME280;35405;52.344;14.530;2022-08-19T12:37:21;100288.78;;;27.79;100.00
49055;BME280;35405;52.344;14.530;2022-08-19T12:39:46;100284.44;;;27.75;100.00
49055;BME280;35405;52.344;14.530;2022-08-19T12:42:12;100292.38;;;27.46;100.00
49055;BME280;35405;52.344;14.530;2022-08-19T12:44:39;100293.88;;;27.16;100.00
49055;BME280;35405;52.344;14.530;2022-08-19T12:47:05;100301.47;;;26.71;100.00
49055;BME280;35405;52.344;14.530;2022-08-19T12:49:31;100303.25;;;26.43;100.00
49055;BME280;35405;52.344;14.530;2022-08-19T12:51:59;100304.53;;;26.28;100.00
49055;BME280;35405;52.344;14.530;2022-08-19T12:54:25;100299.44;;;26.15;100.00
49055;BME280;35405;52.344;14.530;2022-08-19T12:56:50;100293.78;;;26.26;100.00
49055;BME280;35405;52.344;14.530;2022-08-19T12:59:15;100302.88;;;26.37;100.00
49055;BME280;35405;52.344;14.530;2022-08-19T13:01:43;100301.88;;;26.69;100.00
49055;BME280;35405;52.344;14.530;2022-08-19T13:04:08;100294.78;;;27.06;100.00
49055;BME280;35405;52.344;14.530;2022-08-19T13:06:33;100298.38;;;27.44;100.00
49055;BME280;35405;52.344;14.530;2022-08-19T13:08:59;100296.88;;;27.70;100.00
49055;BME280;35405;52.344;14.530;2022-08-19T13:11:24;100291.19;;;27.77;100.00
49055;BME280;35405;52.344;14.530;2022-08-19T13:13:50;100298.34;;;27.48;100.00
49055;BME280;35405;52.344;14.530;2022-08-19T13:16:15;100298.63;;;27.19;100.00
49055;BME280;35405;52.344;14.530;2022-08-19T13:18:42;100306.81;;;26.51;100.00
49055;BME280;35405;52.344;14.530;2022-08-19T13:21:09;100302.69;;;26.07;100.00
49055;BME280;35405;52.344;14.530;2022-08-19T13:23:36;100303.72;;;26.31;100.00
49055;BME280;35405;52.344;14.530;2022-08-19T13:26:03;100302.03;;;26.51;100.00
49055;BME280;35405;52.344;14.530;2022-08-19T13:28:29;100304.56;;;26.80;100.00
49055;BME280;35405;52.344;14.530;2022-08-19T13:31:20;100310.97;;;26.77;100.00
49055;BME280;35405;52.344;14.530;2022-08-19T13:34:05;100311.22;;;26.41;100.00
49055;BME280;35405;52.344;14.530;2022-08-19T13:36:31;100321.72;;;26.19;100.00
49055;BME280;35405;52.344;14.530;2022-08-19T13:38:56;100318.25;;;25.97;100.00
49055;BME280;35405;52.344;14.530;2022-08-19T13:41:22;100315.84;;;25.99;100.00
49055;BME280;35405;52.344;14.530;2022-08-19T13:43:47;100312.63;;;26.04;100.00
49055;BME280;35405;52.344;14.530;2022-08-19T13:46:14;100315.38;;;26.15;100.00
49055;BME280;35405;52.344;14.530;2022-08-19T13:48:39;100308.50;;;26.30;100.00
49055;BME280;35405;52.344;14.530;2022-08-19T13:51:06;100301.69;;;26.35;100.00
49055;BME280;35405;52.344;14.530;2022-08-19T13:53:35;100309.19;;;26.52;100.00
49055;BME280;35405;52.344;14.530;2022-08-19T13:56:00;100313.22;;;26.40;100.00
49055;BME280;35405;52.344;14.530;2022-08-19T13:58:29;100311.16;;;26.55;100.00
49055;BME280;35405;52.344;14.530;2022-08-19T14:00:56;100310.47;;;26.89;100.00
49055;BME280;35405;52.344;14.530;2022-08-19T14:03:22;100304.97;;;26.82;100.00
49055;BME280;35405;52.344;14.530;2022-08-19T14:05:48;100302.16;;;26.82;100.00
49055;BME280;35405;52.344;14.530;2022-08-19T14:08:13;100300.53;;;26.88;100.00
49055;BME280;35405;52.344;14.530;2022-08-19T14:10:39;100294.84;;;26.99;100.00
49055;BME280;35405;52.344;14.530;2022-08-19T14:13:04;100292.63;;;27.24;100.00
49055;BME280;35405;52.344;14.530;2022-08-19T14:15:29;100293.44;;;27.21;100.00
49055;BME280;35405;52.344;14.530;2022-08-19T14:17:55;100285.94;;;27.15;100.00
49055;BME280;35405;52.344;14.530;2022-08-19T14:20:20;100288.44;;;26.98;100.00
49055;BME280;35405;52.344;14.530;2022-08-19T14:22:47;100296.56;;;26.85;100.00
49055;BME280;35405;52.344;14.530;2022-08-19T14:25:14;100291.97;;;27.06;100.00
49055;BME280;35405;52.344;14.530;2022-08-19T14:27:40;100285.13;;;27.14;100.00
49055;BME280;35405;52.344;14.530;2022-08-19T14:30:10;100289.91;;;27.17;100.00
49055;BME280;35405;52.344;14.530;2022-08-19T14:32:36;100283.53;;;27.13;100.00
49055;BME280;35405;52.344;14.530;2022-08-19T14:35:02;100284.47;;;27.37;100.00
49055;BME280;35405;52.344;14.530;2022-08-19T14:37:27;100291.78;;;27.62;100.00
49055;BME280;35405;52.344;14.530;2022-08-19T14:39:52;100295.63;;;27.41;100.00
49055;BME280;35405;52.344;14.530;2022-08-19T14:42:21;100301.81;;;27.21;100.00
49055;BME280;35405;52.344;14.530;2022-08-19T14:44:46;100303.31;;;26.88;100.00
49055;BME280;35405;52.344;14.530;2022-08-19T14:47:14;100302.56;;;26.80;100.00
49055;BME280;35405;52.344;14.530;2022-08-19T14:49:39;100301.34;;;26.85;100.00
49055;BME280;35405;52.344;14.530;2022-08-19T14:52:04;100320.44;;;26.86;100.00
49055;BME280;35405;52.344;14.530;2022-08-19T14:54:30;100319.06;;;26.64;100.00
49055;BME280;35405;52.344;14.530;2022-08-19T14:56:55;100324.06;;;26.28;100.00
49055;BME280;35405;52.344;14.530;2022-08-19T14:59:21;100327.75;;;26.10;100.00
49055;BME280;35405;52.344;14.530;2022-08-19T15:01:46;100330.94;;;26.05;100.00
49055;BME280;35405;52.344;14.530;2022-08-19T15:04:11;100331.00;;;25.94;100.00
49055;BME280;35405;52.344;14.530;2022-08-19T15:06:37;100339.75;;;25.93;100.00
49055;BME280;35405;52.344;14.530;2022-08-19T15:09:02;100328.19;;;26.02;100.00
49055;BME280;35405;52.344;14.530;2022-08-19T15:11:28;100334.50;;;26.13;100.00
49055;BME280;35405;52.344;14.530;2022-08-19T15:13:53;100334.63;;;25.88;100.00
49055;BME280;35405;52.344;14.530;2022-08-19T15:16:21;100329.88;;;25.70;100.00
49055;BME280;35405;52.344;14.530;2022-08-19T15:18:51;100335.03;;;25.79;100.00
49055;BME280;35405;52.344;14.530;2022-08-19T15:21:16;100335.09;;;25.61;100.00
49055;BME280;35405;52.344;14.530;2022-08-19T15:23:43;100335.53;;;25.45;100.00
49055;BME280;35405;52.344;14.530;2022-08-19T15:26:08;100334.75;;;25.34;100.00
49055;BME280;35405;52.344;14.530;2022-08-19T15:28:35;100334.75;;;25.34;100.00
49055;BME280;35405;52.344;14.530;2022-08-19T15:31:00;100335.19;;;25.22;100.00
49055;BME280;35405;52.344;14.530;2022-08-19T15:33:26;100340.34;;;25.20;100.00
49055;BME280;35405;52.344;14.530;2022-08-19T15:35:51;100342.72;;;25.18;100.00
49055;BME280;35405;52.344;14.530;2022-08-19T15:38:18;100350.69;;;24.98;100.00
49055;BME280;35405;52.344;14.530;2022-08-19T15:40:46;100357.84;;;24.88;100.00
49055;BME280;35405;52.344;14.530;2022-08-19T15:43:13;100363.78;;;24.83;100.00
49055;BME280;35405;52.344;14.530;2022-08-19T15:45:38;100359.41;;;24.82;100.00
49055;BME280;35405;52.344;14.530;2022-08-19T15:48:04;100355.44;;;24.83;100.00
49055;BME280;35405;52.344;14.530;2022-08-19T15:50:29;100358.63;;;24.92;100.00
49055;BME280;35405;52.344;14.530;2022-08-19T15:53:00;100358.63;;;25.10;100.00
49055;BME280;35405;52.344;14.530;2022-08-19T15:55:27;100357.44;;;25.04;100.00
49055;BME280;35405;52.344;14.530;2022-08-19T15:57:53;100362.59;;;24.98;100.00
49055;BME280;35405;52.344;14.530;2022-08-19T16:00:37;100359.00;;;24.91;100.00
49055;BME280;35405;52.344;14.530;2022-08-19T16:03:21;100359.44;;;24.85;100.00
49055;BME280;35405;52.344;14.530;2022-08-19T16:06:05;100362.59;;;24.73;100.00
49055;BME280;35405;52.344;14.530;2022-08-19T16:08:49;100370.13;;;24.62;100.00
49055;BME280;35405;52.344;14.530;2022-08-19T16:11:18;100374.50;;;24.59;100.00
49055;BME280;35405;52.344;14.530;2022-08-19T16:13:50;100379.25;;;24.59;100.00
49055;BME280;35405;52.344;14.530;2022-08-19T16:16:19;100371.31;;;24.50;100.00
49055;BME280;35405;52.344;14.530;2022-08-19T16:18:45;100381.13;;;24.30;100.00
49055;BME280;35405;52.344;14.530;2022-08-19T16:21:12;100381.50;;;24.21;100.00
49055;BME280;35405;52.344;14.530;2022-08-19T16:23:37;100383.50;;;24.17;100.00
49055;BME280;35405;52.344;14.530;2022-08-19T16:26:03;100394.19;;;24.11;100.00
49055;BME280;35405;52.344;14.530;2022-08-19T16:28:28;100391.41;;;24.08;100.00
49055;BME280;35405;52.344;14.530;2022-08-19T16:30:54;100391.31;;;23.86;100.00
49055;BME280;35405;52.344;14.530;2022-08-19T16:33:19;100384.88;;;23.71;100.00
49055;BME280;35405;52.344;14.530;2022-08-19T16:35:44;100378.09;;;23.69;100.00
49055;BME280;35405;52.344;14.530;2022-08-19T16:38:10;100384.53;;;23.80;100.00
49055;BME280;35405;52.344;14.530;2022-08-19T16:40:35;100384.13;;;23.82;100.00
49055;BME280;35405;52.344;14.530;2022-08-19T16:43:01;100375.84;;;23.89;100.00
49055;BME280;35405;52.344;14.530;2022-08-19T16:45:26;100371.09;;;23.89;100.00
49055;BME280;35405;52.344;14.530;2022-08-19T16:47:52;100365.13;;;23.91;100.00
49055;BME280;35405;52.344;14.530;2022-08-19T16:50:17;100359.97;;;23.86;100.00
49055;BME280;35405;52.344;14.530;2022-08-19T16:52:43;100368.22;;;23.75;100.00